Time;durP1;ratioP1;P1;durP2;ratioP2;P2;SDS_P1;SDS_P2;PMS_P1;PMS_P2;Temp;Humidity;BMP_temperature;BMP_pressure;BME280_temperature;BME280_humidity;BME280_pressure;Samples;Min_cycle;Max_cycle;Signal;HPM_P1;HPM_P2
2021/07/05 00:01:00;;;;;;;2.75;1.35;;;16.10;93.10;;;;;;5045771;28;20017;-84
2021/07/05 00:03:26;;;;;;;2.88;1.20;;;16.10;93.10;;;;;;5048890;28;20110;-83
2021/07/05 00:05:55;;;;;;;3.60;1.50;;;16.20;92.90;;;;;;5046997;28;20108;-83
2021/07/05 00:08:21;;;;;;;2.42;1.13;;;16.20;92.90;;;;;;5045437;28;20029;-83
2021/07/05 00:10:46;;;;;;;5.15;1.60;;;16.10;93.10;;;;;;5043217;28;20033;-84
2021/07/05 00:13:12;;;;;;;5.40;1.50;;;16.10;92.90;;;;;;5051102;28;20032;-84
2021/07/05 00:15:38;;;;;;;3.00;1.50;;;16.10;93.10;;;;;;5042818;28;20029;-83
2021/07/05 00:18:06;;;;;;;3.90;1.40;;;16.10;93.10;;;;;;5046174;28;20033;-83
2021/07/05 00:20:36;;;;;;;3.30;1.50;;;16.10;93.10;;;;;;5052829;28;20056;-83
2021/07/05 00:23:03;;;;;;;3.30;1.30;;;16.20;93.20;;;;;;5044395;28;20317;-83
2021/07/05 00:25:32;;;;;;;2.40;1.20;;;16.30;92.50;;;;;;5045735;28;20025;-82
2021/07/05 00:27:58;;;;;;;1.92;1.10;;;16.40;92.30;;;;;;5042699;28;20045;-83
2021/07/05 00:30:26;;;;;;;3.28;1.20;;;16.40;92.20;;;;;;5046521;28;20073;-82
2021/07/05 00:32:52;;;;;;;2.28;1.10;;;16.50;92.20;;;;;;5042412;28;20083;-84
2021/07/05 00:35:20;;;;;;;5.00;1.30;;;16.50;92.00;;;;;;5046037;28;20029;-84
2021/07/05 00:37:46;;;;;;;2.90;1.20;;;16.50;92.10;;;;;;5044637;28;20180;-83
2021/07/05 00:40:13;;;;;;;2.40;1.30;;;16.40;92.40;;;;;;5047058;28;20107;-83
2021/07/05 00:42:39;;;;;;;3.33;1.00;;;16.40;92.40;;;;;;5047380;28;20025;-83
2021/07/05 00:45:07;;;;;;;2.22;1.20;;;16.30;92.70;;;;;;5048529;28;20059;-83
2021/07/05 00:47:33;;;;;;;4.10;1.98;;;16.30;92.60;;;;;;5049738;28;21522;-83
2021/07/05 00:49:59;;;;;;;3.60;1.25;;;16.30;93.00;;;;;;5043124;28;20422;-83
2021/07/05 00:52:25;;;;;;;7.47;1.33;;;16.30;92.70;;;;;;5042517;28;20086;-83
2021/07/05 00:54:50;;;;;;;4.45;1.23;;;16.30;92.90;;;;;;5046084;28;20021;-83
2021/07/05 00:57:27;;;;;;;2.35;1.20;;;16.40;92.60;;;;;;5044117;28;20025;-83
2021/07/05 00:59:55;;;;;;;3.13;1.52;;;16.30;92.80;;;;;;5042763;28;20325;-83
2021/07/05 01:02:22;;;;;;;1.92;1.05;;;16.30;92.90;;;;;;5047048;28;20030;-83
2021/07/05 01:04:50;;;;;;;2.45;1.20;;;16.20;93.10;;;;;;5040024;28;20036;-83
2021/07/05 01:07:16;;;;;;;2.85;1.40;;;16.10;93.40;;;;;;5045970;28;20295;-84
2021/07/05 01:09:45;;;;;;;2.50;1.38;;;16.00;93.60;;;;;;5046198;28;20028;-84
2021/07/05 01:12:11;;;;;;;3.67;1.23;;;16.00;93.70;;;;;;5039947;28;20037;-84
2021/07/05 01:14:37;;;;;;;2.58;1.50;;;16.00;93.60;;;;;;5041347;28;20029;-83
2021/07/05 01:17:10;;;;;;;2.63;1.23;;;16.00;93.70;;;;;;5043614;28;20057;-83
2021/07/05 01:19:37;;;;;;;3.15;1.58;;;15.90;93.80;;;;;;5046637;28;20032;-83
2021/07/05 01:22:03;;;;;;;3.95;1.60;;;15.80;94.00;;;;;;5042102;28;20036;-83
2021/07/05 01:24:29;;;;;;;2.08;1.20;;;15.70;94.40;;;;;;5042808;28;20027;-83
2021/07/05 01:26:55;;;;;;;2.63;1.40;;;15.80;94.20;;;;;;5038136;28;20120;-83
2021/07/05 01:29:21;;;;;;;3.72;1.50;;;15.90;94.00;;;;;;5041986;28;20094;-83
2021/07/05 01:31:46;;;;;;;2.78;1.30;;;16.00;94.00;;;;;;5040360;28;20038;-83
2021/07/05 01:34:13;;;;;;;2.70;1.48;;;16.00;93.80;;;;;;5045801;28;20033;-83
2021/07/05 01:36:39;;;;;;;5.75;1.50;;;16.00;93.80;;;;;;5040666;28;20060;-82
2021/07/05 01:39:07;;;;;;;2.30;1.20;;;15.90;93.90;;;;;;5042687;28;20033;-83
2021/07/05 01:41:33;;;;;;;3.15;1.15;;;15.80;94.20;;;;;;5041726;28;20025;-83
2021/07/05 01:43:59;;;;;;;2.40;1.27;;;15.60;94.40;;;;;;5043943;28;20033;-83
2021/07/05 01:46:25;;;;;;;4.40;1.60;;;15.50;94.80;;;;;;5044915;28;20029;-82
2021/07/05 01:48:50;;;;;;;3.10;1.60;;;15.40;94.90;;;;;;5042781;28;20425;-82
2021/07/05 01:51:16;;;;;;;3.03;1.50;;;15.40;94.90;;;;;;5043024;28;20029;-83
2021/07/05 01:53:42;;;;;;;2.97;1.50;;;15.40;94.80;;;;;;5042676;28;20033;-82
2021/07/05 01:56:08;;;;;;;3.50;1.33;;;15.50;94.70;;;;;;5043344;28;20409;-81
2021/07/05 01:58:34;;;;;;;2.63;1.40;;;15.40;95.00;;;;;;5045760;28;20360;-82
2021/07/05 02:01:01;;;;;;;2.13;1.20;;;15.40;95.00;;;;;;5045757;28;20036;-82
2021/07/05 02:03:26;;;;;;;2.95;1.30;;;15.30;95.40;;;;;;5041939;28;20032;-82
2021/07/05 02:05:52;;;;;;;4.00;1.48;;;15.30;95.50;;;;;;5041790;28;20033;-82
2021/07/05 02:08:18;;;;;;;2.53;1.40;;;15.30;95.40;;;;;;5044097;28;20033;-81
2021/07/05 02:10:45;;;;;;;4.40;1.50;;;15.30;95.40;;;;;;5045911;28;20434;-82
2021/07/05 02:13:18;;;;;;;2.95;1.50;;;15.30;95.60;;;;;;5040502;28;20052;-82
2021/07/05 02:15:45;;;;;;;4.88;1.65;;;15.30;95.50;;;;;;5038637;28;20029;-82
2021/07/05 02:18:11;;;;;;;6.15;1.55;;;15.20;95.50;;;;;;5047280;28;20072;-82
2021/07/05 02:20:38;;;;;;;2.85;1.35;;;15.20;95.60;;;;;;5044960;28;20025;-82
2021/07/05 02:23:06;;;;;;;2.95;1.20;;;15.20;95.60;;;;;;5055168;28;20029;-82
2021/07/05 02:25:33;;;;;;;4.47;1.73;;;15.30;95.60;;;;;;5046442;28;20021;-82
2021/07/05 02:28:02;;;;;;;3.40;1.42;;;15.30;95.60;;;;;;5040186;28;20040;-82
2021/07/05 02:30:30;;;;;;;2.03;1.20;;;15.30;95.50;;;;;;5038785;28;20025;-82
2021/07/05 02:32:57;;;;;;;2.90;1.52;;;15.30;95.80;;;;;;5039255;28;20039;-82
2021/07/05 02:35:25;;;;;;;2.63;1.35;;;15.30;95.70;;;;;;5039225;28;20430;-82
2021/07/05 02:37:51;;;;;;;5.15;1.58;;;15.30;95.80;;;;;;5038496;28;20025;-83
2021/07/05 02:40:20;;;;;;;2.95;1.50;;;15.30;95.60;;;;;;5041606;28;20341;-83
2021/07/05 02:42:46;;;;;;;3.15;1.30;;;15.30;95.70;;;;;;5037296;28;20067;-83
2021/07/05 02:45:22;;;;;;;3.22;1.42;;;15.40;95.30;;;;;;5040257;28;20056;-82
2021/07/05 02:47:49;;;;;;;3.28;1.55;;;15.40;95.40;;;;;;5044806;28;20032;-82
2021/07/05 02:50:15;;;;;;;2.08;1.27;;;15.40;95.40;;;;;;5041093;28;20033;-85
2021/07/05 02:52:41;;;;;;;2.25;1.30;;;15.50;95.20;;;;;;5043752;28;20021;-84
2021/07/05 02:55:09;;;;;;;2.38;1.20;;;15.60;95.00;;;;;;5039584;28;20594;-82
2021/07/05 02:57:35;;;;;;;2.58;1.40;;;15.70;94.90;;;;;;5043651;28;20329;-83
2021/07/05 03:00:17;;;;;;;3.47;1.30;;;15.70;95.00;;;;;;5041302;28;20022;-83
2021/07/05 03:02:44;;;;;;;2.97;1.33;;;15.70;95.00;;;;;;5041127;28;20029;-83
2021/07/05 03:05:11;;;;;;;2.65;1.38;;;15.60;95.10;;;;;;5037145;28;20029;-83
2021/07/05 03:07:38;;;;;;;2.88;1.33;;;15.60;95.20;;;;;;5037287;28;20113;-82
2021/07/05 03:10:07;;;;;;;3.28;1.27;;;15.50;95.20;;;;;;5040096;28;20035;-83
2021/07/05 03:12:32;;;;;;;3.47;1.42;;;15.40;95.30;;;;;;5039545;28;20024;-83
2021/07/05 03:14:58;;;;;;;2.50;1.33;;;15.30;95.40;;;;;;5040705;28;20037;-83
2021/07/05 03:17:24;;;;;;;4.40;1.38;;;15.20;95.60;;;;;;5038959;28;20124;-83
2021/07/05 03:19:50;;;;;;;3.05;1.45;;;15.20;95.80;;;;;;5036433;28;20194;-82
2021/07/05 03:22:18;;;;;;;3.40;1.52;;;15.30;95.60;;;;;;5036815;28;20374;-82
2021/07/05 03:24:44;;;;;;;2.58;1.30;;;15.30;95.70;;;;;;5045890;28;20052;-82
2021/07/05 03:27:11;;;;;;;4.10;1.33;;;15.30;95.70;;;;;;5049411;28;20059;-83
2021/07/05 03:29:37;;;;;;;3.97;1.27;;;15.20;95.80;;;;;;5044930;28;20045;-83
2021/07/05 03:32:05;;;;;;;3.67;1.40;;;15.30;95.70;;;;;;5038023;28;20130;-82
2021/07/05 03:34:31;;;;;;;3.97;1.60;;;15.40;95.60;;;;;;5036474;28;20031;-82
2021/07/05 03:36:57;;;;;;;3.30;1.27;;;15.40;95.30;;;;;;5039935;28;20025;-83
2021/07/05 03:39:24;;;;;;;2.40;1.30;;;15.50;95.20;;;;;;5041124;28;20031;-81
2021/07/05 03:41:49;;;;;;;9.43;1.40;;;15.50;95.40;;;;;;5038592;28;20052;-82
2021/07/05 03:44:16;;;;;;;2.67;1.40;;;15.60;95.30;;;;;;5034444;28;20041;-82
2021/07/05 03:46:42;;;;;;;2.58;1.40;;;15.50;95.60;;;;;;5034932;28;20029;-82
2021/07/05 03:49:08;;;;;;;3.83;1.48;;;15.20;96.10;;;;;;5036124;28;20029;-81
2021/07/05 03:51:34;;;;;;;3.10;1.70;;;15.00;96.60;;;;;;5041294;28;20037;-82
2021/07/05 03:54:00;;;;;;;4.10;1.58;;;14.90;96.70;;;;;;5038111;28;20021;-83
2021/07/05 03:56:26;;;;;;;2.70;1.30;;;14.80;97.10;;;;;;5041560;28;20087;-82
2021/07/05 03:58:52;;;;;;;4.28;1.60;;;14.80;97.10;;;;;;5040180;28;20104;-81
2021/07/05 04:01:18;;;;;;;3.22;1.55;;;14.70;97.10;;;;;;5038550;28;20026;-82
2021/07/05 04:03:43;;;;;;;4.30;1.65;;;14.70;97.00;;;;;;5035449;28;20384;-82
2021/07/05 04:06:09;;;;;;;3.83;1.50;;;14.60;97.20;;;;;;5038442;28;20021;-82
2021/07/05 04:08:35;;;;;;;6.88;1.58;;;14.60;97.00;;;;;;5039763;28;20099;-82
2021/07/05 04:11:03;;;;;;;2.70;1.52;;;14.60;97.30;;;;;;5036105;28;20029;-82
2021/07/05 04:13:30;;;;;;;2.40;1.30;;;14.60;97.20;;;;;;5039851;28;20017;-82
2021/07/05 04:15:56;;;;;;;2.90;1.60;;;14.60;97.20;;;;;;5038651;28;20017;-81
2021/07/05 04:18:23;;;;;;;3.55;1.30;;;14.60;97.10;;;;;;5041298;28;20024;-83
2021/07/05 04:20:49;;;;;;;6.18;1.40;;;14.60;97.10;;;;;;5041595;28;20021;-81
2021/07/05 04:23:16;;;;;;;2.80;1.25;;;14.60;97.30;;;;;;5037879;28;20033;-82
2021/07/05 04:25:42;;;;;;;2.50;1.25;;;14.70;97.10;;;;;;5037877;28;20037;-82
2021/07/05 04:28:08;;;;;;;2.70;1.35;;;14.70;97.00;;;;;;5040997;28;20088;-82
2021/07/05 04:30:36;;;;;;;10.23;1.40;;;14.80;97.10;;;;;;5041086;28;20108;-82
2021/07/05 04:33:02;;;;;;;3.40;1.38;;;14.80;97.00;;;;;;5040390;28;20033;-82
2021/07/05 04:35:28;;;;;;;3.67;1.35;;;14.90;97.10;;;;;;5035395;28;20170;-82
2021/07/05 04:37:54;;;;;;;3.35;1.58;;;14.90;97.10;;;;;;5037905;28;20029;-82
2021/07/05 04:40:30;;;;;;;3.60;1.50;;;15.00;96.70;;;;;;5041478;28;20048;-82
2021/07/05 04:42:56;;;;;;;2.67;1.40;;;15.10;96.70;;;;;;5038902;28;20108;-82
2021/07/05 04:45:27;;;;;;;3.13;1.38;;;15.20;96.50;;;;;;5040805;28;20083;-82
2021/07/05 04:47:53;;;;;;;3.10;1.33;;;15.40;96.40;;;;;;5040621;28;20123;-82
2021/07/05 04:50:19;;;;;;;3.05;1.40;;;15.70;96.00;;;;;;5043343;28;20028;-82
2021/07/05 04:52:46;;;;;;;3.83;1.50;;;15.90;95.70;;;;;;5043227;28;20418;-82
2021/07/05 04:55:13;;;;;;;3.63;1.40;;;16.00;95.80;;;;;;5042141;28;20037;-82
2021/07/05 04:57:40;;;;;;;2.33;1.13;;;16.20;95.20;;;;;;5038532;28;20140;-82
2021/07/05 05:00:09;;;;;;;6.00;1.50;;;16.40;94.80;;;;;;5044167;28;20054;-81
2021/07/05 05:02:37;;;;;;;4.10;1.40;;;16.60;94.80;;;;;;5042070;28;20361;-81
2021/07/05 05:05:07;;;;;;;3.00;1.30;;;16.80;95.20;;;;;;5038451;28;21447;-82
2021/07/05 05:07:33;;;;;;;2.50;1.13;;;16.90;94.60;;;;;;5039812;28;20330;-81
2021/07/05 05:10:01;;;;;;;2.10;1.00;;;17.00;94.00;;;;;;5037932;28;20044;-81
2021/07/05 05:12:30;;;;;;;1.58;0.98;;;17.10;94.10;;;;;;5039072;28;20026;-81
2021/07/05 05:14:57;;;;;;;4.10;1.10;;;17.10;94.00;;;;;;5045419;28;20033;-82
2021/07/05 05:17:23;;;;;;;2.42;1.20;;;17.10;93.80;;;;;;5047172;28;20087;-82
2021/07/05 05:19:49;;;;;;;3.53;1.40;;;17.00;94.10;;;;;;5043070;28;20208;-82
2021/07/05 05:22:15;;;;;;;2.35;1.33;;;17.00;94.30;;;;;;5040838;28;20036;-82
2021/07/05 05:24:41;;;;;;;2.20;1.17;;;16.80;94.20;;;;;;5041197;28;20033;-81
2021/07/05 05:27:06;;;;;;;2.63;1.20;;;16.70;94.30;;;;;;5047969;28;20071;-82
2021/07/05 05:29:35;;;;;;;3.08;1.20;;;16.40;94.70;;;;;;5041771;28;20633;-81
2021/07/05 05:32:02;;;;;;;4.00;1.80;;;16.30;94.90;;;;;;5042909;28;20023;-81
2021/07/05 05:34:28;;;;;;;2.38;1.13;;;16.20;95.30;;;;;;5043242;28;20017;-83
2021/07/05 05:36:56;;;;;;;4.93;1.35;;;16.10;94.80;;;;;;5038832;28;20031;-82
2021/07/05 05:39:22;;;;;;;2.70;1.20;;;16.10;95.80;;;;;;5047673;28;20018;-82
2021/07/05 05:41:48;;;;;;;2.65;1.10;;;16.10;95.30;;;;;;5049683;28;20386;-82
2021/07/05 05:44:13;;;;;;;2.75;1.30;;;16.10;95.50;;;;;;5056995;28;20045;-82
2021/07/05 05:46:39;;;;;;;3.17;1.48;;;16.20;95.50;;;;;;5056852;28;20088;-82
2021/07/05 05:49:05;;;;;;;3.03;1.20;;;16.10;95.40;;;;;;5054199;28;20077;-82
2021/07/05 05:51:32;;;;;;;3.22;1.15;;;16.10;95.50;;;;;;5055974;28;20032;-82
2021/07/05 05:54:05;;;;;;;3.58;1.30;;;16.10;95.10;;;;;;5043177;28;20027;-82
2021/07/05 05:56:32;;;;;;;1.80;1.00;;;16.00;95.00;;;;;;5044128;28;20028;-82
2021/07/05 05:59:04;;;;;;;2.53;1.17;;;16.10;95.30;;;;;;5055971;28;20028;-82
2021/07/05 06:01:31;;;;;;;3.10;1.20;;;16.10;95.70;;;;;;5049321;28;20302;-81
2021/07/05 06:04:00;;;;;;;2.08;1.00;;;16.10;95.60;;;;;;5054861;28;20029;-82
2021/07/05 06:06:26;;;;;;;3.60;1.10;;;16.00;95.50;;;;;;5055346;28;20032;-81
2021/07/05 06:08:53;;;;;;;1.83;1.15;;;16.00;96.00;;;;;;5055305;28;20127;-82
2021/07/05 06:11:19;;;;;;;2.50;1.15;;;16.00;96.00;;;;;;5056222;28;20075;-83
2021/07/05 06:13:46;;;;;;;3.65;1.30;;;15.90;95.60;;;;;;5056155;28;20421;-82
2021/07/05 06:16:12;;;;;;;2.38;1.10;;;15.80;95.60;;;;;;5054897;28;20416;-81
2021/07/05 06:18:38;;;;;;;7.43;1.50;;;15.70;95.70;;;;;;5053952;28;20055;-82
2021/07/05 06:21:07;;;;;;;4.53;1.30;;;15.80;96.40;;;;;;5054647;28;20040;-82
2021/07/05 06:23:33;;;;;;;3.95;1.38;;;15.80;97.10;;;;;;5055220;28;20095;-82
2021/07/05 06:26:01;;;;;;;3.03;1.40;;;15.70;96.00;;;;;;5054603;28;20116;-82
2021/07/05 06:28:29;;;;;;;3.78;1.42;;;15.80;96.60;;;;;;5055246;28;20104;-83
2021/07/05 06:30:57;;;;;;;3.50;1.30;;;15.80;97.10;;;;;;5052885;28;20500;-84
2021/07/05 06:33:23;;;;;;;2.40;1.08;;;15.90;96.90;;;;;;5053163;28;20441;-84
2021/07/05 06:35:49;;;;;;;3.28;1.30;;;15.80;96.00;;;;;;5054137;28;20068;-84
2021/07/05 06:38:17;;;;;;;3.67;1.40;;;15.80;96.20;;;;;;5055131;28;20351;-84
2021/07/05 06:40:44;;;;;;;2.88;1.50;;;15.90;96.20;;;;;;5052991;28;20082;-84
2021/07/05 06:43:12;;;;;;;2.33;1.15;;;15.80;96.60;;;;;;5053906;28;20084;-84
2021/07/05 06:45:39;;;;;;;3.33;1.20;;;15.70;96.40;;;;;;5042607;28;20037;-84
2021/07/05 06:48:04;;;;;;;3.03;1.00;;;15.60;96.80;;;;;;5055750;28;20063;-84
2021/07/05 06:50:34;;;;;;;4.32;1.63;;;15.50;96.10;;;;;;5051370;28;20021;-84
2021/07/05 06:53:00;;;;;;;3.08;1.40;;;15.50;97.00;;;;;;5034683;28;20030;-85
2021/07/05 06:55:26;;;;;;;10.07;5.05;;;15.60;96.80;;;;;;5048705;28;20367;-85
2021/07/05 06:57:52;;;;;;;4.18;1.27;;;15.70;97.30;;;;;;5055548;28;20132;-85
2021/07/05 07:00:23;;;;;;;4.00;2.03;;;15.60;96.80;;;;;;5045040;28;20033;-83
2021/07/05 07:02:50;;;;;;;2.85;1.33;;;15.70;97.00;;;;;;5053125;28;20054;-85
2021/07/05 07:05:18;;;;;;;2.95;1.35;;;15.80;97.20;;;;;;5053251;28;20039;-85
2021/07/05 07:07:45;;;;;;;3.35;1.30;;;15.90;96.80;;;;;;5053424;28;20098;-84
2021/07/05 07:10:13;;;;;;;2.70;1.00;;;16.00;96.60;;;;;;5054762;28;20078;-85
2021/07/05 07:12:42;;;;;;;2.28;1.20;;;16.00;96.60;;;;;;5044516;28;20036;-85
2021/07/05 07:15:09;;;;;;;2.97;1.20;;;15.90;96.00;;;;;;5055312;28;20102;-84
2021/07/05 07:17:39;;;;;;;2.25;1.08;;;16.00;96.80;;;;;;5054243;28;20023;-85
2021/07/05 07:20:07;;;;;;;3.17;1.30;;;16.10;96.50;;;;;;5054279;28;20043;-84
2021/07/05 07:22:37;;;;;;;3.75;1.20;;;16.30;97.10;;;;;;5052782;28;20322;-85
2021/07/05 07:25:05;;;;;;;3.42;1.20;;;16.60;97.00;;;;;;5052966;28;20067;-85
2021/07/05 07:27:31;;;;;;;3.08;1.38;;;16.80;96.80;;;;;;5054333;28;20044;-84
2021/07/05 07:29:57;;;;;;;3.63;2.90;;;17.10;97.10;;;;;;5054937;28;20029;-84
2021/07/05 07:32:22;;;;;;;2.25;1.10;;;17.20;95.80;;;;;;5053176;28;20060;-84
2021/07/05 07:34:48;;;;;;;3.78;1.30;;;17.20;95.50;;;;;;5051385;28;20023;-84
2021/07/05 07:37:14;;;;;;;4.95;1.10;;;17.40;95.70;;;;;;5034343;28;20087;-84
2021/07/05 07:39:43;;;;;;;2.42;1.50;;;17.30;95.30;;;;;;5041486;28;20025;-84
2021/07/05 07:42:08;;;;;;;3.35;1.23;;;17.20;95.50;;;;;;5054957;28;20080;-84
2021/07/05 07:44:34;;;;;;;1.92;1.02;;;17.30;95.20;;;;;;5052106;28;20114;-84
2021/07/05 07:47:01;;;;;;;1.92;1.15;;;17.20;94.80;;;;;;5035259;28;20029;-84
2021/07/05 07:49:27;;;;;;;3.40;1.42;;;17.20;95.30;;;;;;5037759;28;20040;-84
2021/07/05 07:51:53;;;;;;;2.65;1.30;;;17.30;95.80;;;;;;5054670;28;20351;-84
2021/07/05 07:54:19;;;;;;;2.05;1.20;;;17.40;95.30;;;;;;5050427;28;20094;-84
2021/07/05 07:56:45;;;;;;;2.83;1.17;;;17.20;95.50;;;;;;5052737;28;20303;-84
2021/07/05 07:59:10;;;;;;;5.45;1.60;;;17.20;95.00;;;;;;5038420;28;20013;-84
2021/07/05 08:01:36;;;;;;;3.88;1.27;;;17.30;95.20;;;;;;5037568;28;20025;-84
2021/07/05 08:04:02;;;;;;;2.13;1.17;;;17.50;95.60;;;;;;5039050;28;20448;-85
2021/07/05 08:06:27;;;;;;;2.47;1.25;;;17.50;94.30;;;;;;5035260;28;20026;-84
2021/07/05 08:08:55;;;;;;;2.38;1.27;;;17.30;94.90;;;;;;5034636;28;20065;-84
2021/07/05 08:11:21;;;;;;;2.35;1.10;;;17.50;94.50;;;;;;5051726;28;20033;-84
2021/07/05 08:13:48;;;;;;;2.97;1.00;;;17.80;94.80;;;;;;5044806;28;20026;-85
2021/07/05 08:16:14;;;;;;;1.95;1.10;;;17.60;94.50;;;;;;5038977;28;20421;-84
2021/07/05 08:18:40;;;;;;;1.92;1.25;;;17.60;94.60;;;;;;5047598;28;20029;-84
2021/07/05 08:21:05;;;;;;;2.90;1.30;;;17.60;94.30;;;;;;5058611;28;20040;-86
2021/07/05 08:23:31;;;;;;;2.45;1.20;;;17.60;94.70;;;;;;5057104;28;20424;-86
2021/07/05 08:25:58;;;;;;;3.90;1.10;;;17.80;94.50;;;;;;5058380;28;20071;-85
2021/07/05 08:28:27;;;;;;;2.28;0.90;;;18.00;94.10;;;;;;5055933;28;20029;-85
2021/07/05 08:30:54;;;;;;;3.05;0.95;;;17.90;93.20;;;;;;5055523;28;20523;-85
2021/07/05 08:33:20;;;;;;;1.90;1.02;;;17.70;93.10;;;;;;5056135;28;20031;-84
2021/07/05 08:35:46;;;;;;;1.58;0.95;;;17.60;92.70;;;;;;5053869;28;20021;-84
2021/07/05 08:38:12;;;;;;;1.42;0.80;;;17.70;93.20;;;;;;5038589;28;20105;-84
2021/07/05 08:40:38;;;;;;;5.50;1.20;;;17.90;92.90;;;;;;5046560;28;20037;-84
2021/07/05 08:43:04;;;;;;;1.65;0.80;;;18.30;92.60;;;;;;5057320;28;20029;-84
2021/07/05 08:45:29;;;;;;;3.65;1.00;;;18.50;91.70;;;;;;5057176;28;20044;-83
2021/07/05 08:47:56;;;;;;;2.70;0.90;;;18.50;91.50;;;;;;5037109;28;20121;-84
2021/07/05 08:50:24;;;;;;;1.45;0.80;;;18.30;91.00;;;;;;5042411;28;20021;-84
2021/07/05 08:52:50;;;;;;;1.73;0.80;;;18.10;92.70;;;;;;5042511;28;20063;-84
2021/07/05 08:55:18;;;;;;;2.30;1.10;;;18.20;92.50;;;;;;5039295;28;20036;-84
2021/07/05 08:57:45;;;;;;;2.70;1.13;;;18.50;92.10;;;;;;5055827;28;20043;-84
2021/07/05 09:00:13;;;;;;;3.65;1.20;;;18.70;91.70;;;;;;5057263;28;20049;-84
2021/07/05 09:02:39;;;;;;;1.95;1.05;;;18.90;92.00;;;;;;5052425;28;20329;-84
2021/07/05 09:05:06;;;;;;;5.10;1.95;;;18.90;91.80;;;;;;5047604;28;20029;-83
2021/07/05 09:07:32;;;;;;;2.50;1.00;;;18.80;91.90;;;;;;5056255;28;20378;-85
2021/07/05 09:10:06;;;;;;;1.73;0.82;;;19.00;91.40;;;;;;5056577;28;20067;-85
2021/07/05 09:12:32;;;;;;;1.75;1.00;;;19.40;90.70;;;;;;5041313;28;20051;-84
2021/07/05 09:15:08;;;;;;;2.17;0.90;;;20.10;91.00;;;;;;5037755;28;20444;-84
2021/07/05 09:17:43;;;;;;;1.30;0.77;;;20.70;88.20;;;;;;5053183;28;20025;-84
2021/07/05 09:20:14;;;;;;;1.33;0.77;;;21.50;85.00;;;;;;5056267;28;20052;-84
2021/07/05 09:23:14;;;;;;;2.13;0.98;;;22.40;81.80;;;;;;5040274;28;20026;-84
2021/07/05 09:25:42;;;;;;;1.70;0.80;;;23.60;80.00;;;;;;5040571;28;20021;-84
2021/07/05 09:28:08;;;;;;;1.45;0.70;;;24.40;77.10;;;;;;5037661;28;20026;-83
2021/07/05 09:30:38;;;;;;;1.75;0.70;;;24.60;76.40;;;;;;5047387;28;20032;-84
2021/07/05 09:33:24;;;;;;;1.70;0.93;;;24.40;76.70;;;;;;5056425;28;20024;-84
2021/07/05 09:36:02;;;;;;;1.05;0.70;;;24.20;77.60;;;;;;5056045;28;20045;-83
2021/07/05 09:38:27;;;;;;;1.25;0.80;;;24.20;76.80;;;;;;5055472;28;20360;-83
2021/07/05 09:40:53;;;;;;;2.90;1.08;;;23.50;78.80;;;;;;5045008;28;20057;-83
2021/07/05 09:43:27;;;;;;;2.45;1.33;;;22.20;81.40;;;;;;5036142;28;20053;-83
2021/07/05 09:45:53;;;;;;;1.60;0.98;;;21.50;84.20;;;;;;5049548;28;20068;-83
2021/07/05 09:48:24;;;;;;;2.42;1.25;;;21.10;84.40;;;;;;5056056;28;20025;-83
2021/07/05 09:51:02;;;;;;;2.92;1.00;;;20.50;86.30;;;;;;5046498;28;20041;-84
2021/07/05 09:53:34;;;;;;;1.83;1.00;;;19.90;88.50;;;;;;5036026;28;20128;-83
2021/07/05 09:56:18;;;;;;;1.88;1.00;;;19.70;88.70;;;;;;5048237;28;20029;-83
2021/07/05 09:58:45;;;;;;;2.00;0.95;;;19.50;90.40;;;;;;5054742;28;20029;-83
2021/07/05 10:01:10;;;;;;;3.15;1.30;;;19.50;91.00;;;;;;5055264;28;20349;-83
2021/07/05 10:03:39;;;;;;;2.03;1.10;;;19.40;91.50;;;;;;5051814;28;20030;-81
2021/07/05 10:06:19;;;;;;;2.50;1.13;;;19.20;92.40;;;;;;5050924;28;20098;-83
2021/07/05 10:08:46;;;;;;;2.47;1.10;;;19.40;92.50;;;;;;5056010;28;20409;-83
2021/07/05 10:11:13;;;;;;;2.25;1.10;;;19.70;91.20;;;;;;5045863;28;20096;-83
2021/07/05 10:13:39;;;;;;;3.40;1.10;;;20.00;89.40;;;;;;5042655;28;20022;-83
2021/07/05 10:16:10;;;;;;;3.50;1.27;;;19.90;89.30;;;;;;5051090;28;20325;-83
2021/07/05 10:18:36;;;;;;;2.58;1.30;;;19.90;89.80;;;;;;5051457;28;20131;-83
2021/07/05 10:21:03;;;;;;;5.40;1.42;;;19.90;90.50;;;;;;5041567;28;20051;-83
2021/07/05 10:23:30;;;;;;;3.63;1.45;;;20.20;88.80;;;;;;5053806;28;20035;-84
2021/07/05 10:25:55;;;;;;;2.85;1.30;;;20.30;87.90;;;;;;5047981;28;20086;-83
2021/07/05 10:28:21;;;;;;;2.20;1.20;;;20.50;88.30;;;;;;5055798;28;20029;-83
2021/07/05 10:30:50;;;;;;;2.60;1.20;;;20.80;88.10;;;;;;5053923;28;20116;-83
2021/07/05 10:33:17;;;;;;;4.68;1.50;;;20.50;85.90;;;;;;5044341;28;20418;-82
2021/07/05 10:35:51;;;;;;;2.70;1.30;;;20.20;86.30;;;;;;5068051;28;20341;-83
2021/07/05 10:38:19;;;;;;;;;;;20.10;87.20;;;;;;5076567;28;20066;-82
2021/07/05 10:40:49;;;;;;;3.10;1.40;;;19.90;87.60;;;;;;5036360;28;19909;-83
2021/07/05 10:43:18;;;;;;;2.75;1.25;;;20.10;87.70;;;;;;5039092;28;20033;-82
2021/07/05 10:45:56;;;;;;;2.45;1.30;;;20.00;87.00;;;;;;5054750;28;20123;-83
2021/07/05 10:48:31;;;;;;;4.38;1.40;;;19.50;87.80;;;;;;5054804;28;20025;-84
2021/07/05 10:51:02;;;;;;;2.92;1.42;;;19.10;90.70;;;;;;5050878;28;20329;-84
2021/07/05 10:53:46;;;;;;;3.80;1.42;;;18.80;90.90;;;;;;5054498;28;20021;-83
2021/07/05 10:56:31;;;;;;;3.58;1.65;;;18.20;92.60;;;;;;5035873;28;20018;-83
2021/07/05 10:59:12;;;;;;;3.08;1.45;;;18.00;94.40;;;;;;5037503;28;20037;-82
2021/07/05 11:01:39;;;;;;;3.20;1.67;;;17.90;93.60;;;;;;5035474;28;20025;-82
2021/07/05 11:04:29;;;;;;;3.72;1.90;;;17.70;94.30;;;;;;5041115;28;20417;-82
2021/07/05 11:06:58;;;;;;;3.10;1.50;;;17.40;94.50;;;;;;5035252;28;20036;-82
2021/07/05 11:09:24;;;;;;;6.03;1.67;;;17.40;94.60;;;;;;5036743;28;20040;-81
2021/07/05 11:11:52;;;;;;;3.72;1.80;;;17.20;94.80;;;;;;5035307;28;20026;-82
2021/07/05 11:14:26;;;;;;;2.83;1.40;;;17.20;94.80;;;;;;5037451;28;20021;-84
2021/07/05 11:16:59;;;;;;;4.05;1.67;;;17.30;95.20;;;;;;5041462;28;20104;-84
2021/07/05 11:19:32;;;;;;;4.67;1.97;;;17.60;94.80;;;;;;5052634;28;20041;-84
2021/07/05 11:22:05;;;;;;;3.97;1.70;;;18.10;93.80;;;;;;5036026;28;20397;-84
2021/07/05 11:24:55;;;;;;;2.45;1.38;;;18.70;94.30;;;;;;5045754;28;20291;-84
2021/07/05 11:27:35;;;;;;;2.78;1.23;;;19.70;91.30;;;;;;5035311;28;20445;-83
2021/07/05 11:30:14;;;;;;;1.88;1.00;;;20.60;89.60;;;;;;5034356;28;20033;-83
2021/07/05 11:32:46;;;;;;;1.98;1.00;;;21.10;86.60;;;;;;5040999;28;20023;-83
2021/07/05 11:35:31;;;;;;;3.22;1.23;;;21.60;85.50;;;;;;5046102;28;20026;-83
2021/07/05 11:37:59;;;;;;;2.47;1.20;;;21.30;84.00;;;;;;5034626;28;20025;-84
2021/07/05 11:41:03;;;;;;;2.72;1.10;;;21.60;85.70;;;;;;5043715;28;20064;-84
2021/07/05 11:43:53;;;;;;;1.92;0.93;;;21.80;84.60;;;;;;5054843;28;20103;-83
2021/07/05 11:46:28;;;;;;;2.17;1.05;;;21.50;83.60;;;;;;5054268;28;20029;-83
2021/07/05 11:49:12;;;;;;;1.95;1.05;;;21.00;85.00;;;;;;5052725;28;20333;-83
2021/07/05 11:51:44;;;;;;;;;;;20.90;83.90;;;;;;5035630;28;20025;-83
2021/07/05 11:54:25;;;;;;;2.15;1.05;;;20.30;84.00;;;;;;5048033;28;19913;-84
2021/07/05 11:56:53;;;;;;;1.73;1.00;;;20.50;85.40;;;;;;5054570;28;20021;-83
2021/07/05 11:59:26;;;;;;;2.95;1.10;;;20.70;83.80;;;;;;5054618;28;20017;-84
2021/07/05 12:02:02;;;;;;;5.75;2.00;;;20.80;84.50;;;;;;5052048;28;20059;-83
2021/07/05 12:04:32;;;;;;;2.00;1.00;;;21.00;83.40;;;;;;5052755;28;20025;-84
2021/07/05 12:06:59;;;;;;;2.40;1.02;;;20.70;84.40;;;;;;5052176;28;20036;-82
2021/07/05 12:09:27;;;;;;;1.80;1.00;;;21.30;83.20;;;;;;5054708;28;20112;-83
2021/07/05 12:11:54;;;;;;;1.60;0.90;;;21.60;81.50;;;;;;5036857;28;20113;-83
2021/07/05 12:14:29;;;;;;;2.40;1.10;;;21.90;81.70;;;;;;5053020;28;20116;-85
2021/07/05 12:16:59;;;;;;;2.20;1.00;;;21.10;82.30;;;;;;5054152;28;20017;-83
2021/07/05 12:19:31;;;;;;;2.33;1.05;;;21.10;82.00;;;;;;5052849;28;20029;-83
2021/07/05 12:22:06;;;;;;;1.88;0.88;;;21.10;81.20;;;;;;5054053;28;20025;-83
2021/07/05 12:24:35;;;;;;;2.03;1.10;;;20.70;82.20;;;;;;5035514;28;20029;-84
2021/07/05 12:27:03;;;;;;;2.22;1.40;;;20.20;83.60;;;;;;5033827;28;20060;-84
2021/07/05 12:29:37;;;;;;;2.20;1.02;;;20.10;83.50;;;;;;5068480;28;20043;-82
2021/07/05 12:32:13;;;;;;;1.45;0.80;;;20.20;83.70;;;;;;5072476;28;20047;-83
2021/07/05 12:34:41;;;;;;;1.52;0.80;;;20.50;82.90;;;;;;5051902;28;20064;-83
2021/07/05 12:37:12;;;;;;;2.17;0.93;;;20.30;82.60;;;;;;5054560;28;20341;-83
2021/07/05 12:40:01;;;;;;;2.33;1.00;;;20.50;83.70;;;;;;5052596;28;20036;-83
2021/07/05 12:42:35;;;;;;;2.15;0.93;;;20.70;83.50;;;;;;5052500;28;20475;-84
2021/07/05 12:45:05;;;;;;;2.80;1.10;;;20.20;82.60;;;;;;5054191;28;20049;-83
2021/07/05 12:47:31;;;;;;;1.60;0.90;;;19.90;84.80;;;;;;5053939;28;20025;-83
2021/07/05 12:49:58;;;;;;;1.45;0.80;;;20.10;83.80;;;;;;5052848;28;20124;-83
2021/07/05 12:52:24;;;;;;;1.50;0.90;;;20.40;83.40;;;;;;5052345;28;20029;-83
2021/07/05 12:55:11;;;;;;;1.20;0.85;;;20.40;84.20;;;;;;5047064;28;20071;-83